createdAt,value
2022-08-22T00:02:30.086Z,99852.69
2022-08-22T00:03:11.844Z,99847.03
2022-08-22T00:03:15.539Z,99860.72
2022-08-22T00:05:05.997Z,99862.59
2022-08-22T00:07:44.984Z,99851.03
2022-08-22T00:10:25.534Z,99854.63
2022-08-22T00:13:08.020Z,99855.16
2022-08-22T00:15:44.706Z,99847.69
2022-08-22T00:18:40.173Z,99853.50
2022-08-22T00:21:17.017Z,99844.69
2022-08-22T00:24:15.573Z,99853.50
2022-08-22T00:27:21.437Z,99848.28
2022-08-22T00:29:53.517Z,99851.03
2022-08-22T00:32:27.196Z,99837.78
2022-08-22T00:35:13.841Z,99845.25
2022-08-22T00:38:02.741Z,99844.97
2022-08-22T00:40:57.642Z,99848.56
2022-08-22T00:43:30.430Z,99844.97
2022-08-22T00:46:03.286Z,99848.00
2022-08-22T00:48:36.223Z,99840.00
2022-08-22T00:51:16.636Z,99831.16
2022-08-22T00:54:16.848Z,99825.94
2022-08-22T00:57:18.563Z,99832.78
2022-08-22T01:00:09.473Z,99838.31
2022-08-22T01:02:59.733Z,99835.56
2022-08-22T01:06:10.103Z,99838.06
2022-08-22T01:09:05.577Z,99840.81
2022-08-22T01:11:57.416Z,99844.09
2022-08-22T01:14:49.353Z,99834.47
2022-08-22T01:17:34.805Z,99839.94
2022-08-22T01:20:29.551Z,99847.13
2022-08-22T01:23:17.691Z,99836.94
2022-08-22T01:26:19.399Z,99832.78
2022-08-22T01:28:53.194Z,99830.03
2022-08-22T01:32:10.617Z,99830.63
2022-08-22T01:35:11.472Z,99821.22
2022-08-22T01:38:06.170Z,99825.63
2022-08-22T01:40:54.099Z,99815.72
2022-08-22T01:43:59.162Z,99815.44
2022-08-22T01:46:47.452Z,99817.13
2022-08-22T01:49:35.525Z,99811.03
2022-08-22T01:52:11.648Z,99816.81
2022-08-22T01:54:54.923Z,99817.88
2022-08-22T01:57:24.285Z,99809.56
2022-08-22T01:59:55.901Z,99809.84
2022-08-22T02:02:38.696Z,99797.69
2022-08-22T02:05:24.617Z,99792.72
2022-08-22T02:08:06.512Z,99791.31
2022-08-22T02:11:06.534Z,99780.59
2022-08-22T02:13:33.330Z,99774.50
2022-08-22T02:16:18.815Z,99772.81
2022-08-22T02:19:06.039Z,99777.50
2022-08-22T02:21:59.751Z,99770.03
2022-08-22T02:24:35.115Z,99761.50
2022-08-22T02:27:05.200Z,99763.94
2022-08-22T02:29:40.552Z,99762.81
2022-08-22T02:32:15.773Z,99765.84
2022-08-22T02:35:17.097Z,99769.72
2022-08-22T02:37:54.412Z,99773.25
2022-08-22T02:40:39.267Z,99760.03
2022-08-22T02:43:15.103Z,99761.44
2022-08-22T02:46:00.326Z,99756.75
2022-08-22T02:48:27.920Z,99760.31
2022-08-22T02:51:02.156Z,99758.66
2022-08-22T02:53:38.851Z,99758.09
2022-08-22T02:56:23.823Z,99763.88
2022-08-22T02:58:59.989Z,99761.09
2022-08-22T03:01:30.014Z,99770.66
2022-08-22T03:04:21.746Z,99772.28
2022-08-22T03:07:16.804Z,99774.47
2022-08-22T03:09:43.545Z,99784.63
2022-08-22T03:12:32.306Z,99778.28
2022-08-22T03:15:39.469Z,99769.47
2022-08-22T03:18:30.545Z,99773.34
2022-08-22T03:21:14.109Z,99772.75
2022-08-22T03:23:47.937Z,99779.84
2022-08-22T03:26:36.520Z,99784.00
2022-08-22T03:29:10.429Z,99781.75
2022-08-22T03:31:37.880Z,99793.03
2022-08-22T03:34:23.114Z,99796.56
2022-08-22T03:37:04.893Z,99803.69
2022-08-22T03:39:37.832Z,99807.56
2022-08-22T03:42:49.227Z,99788.56
2022-08-22T03:45:54.151Z,99784.09
2022-08-22T03:48:20.973Z,99787.66
2022-08-22T03:51:06.304Z,99788.50
2022-08-22T03:53:51.418Z,99774.19
2022-08-22T03:56:38.378Z,99774.72
2022-08-22T03:59:30.849Z,99755.72
2022-08-22T04:02:26.196Z,99754.84
2022-08-22T04:05:34.374Z,99740.84
2022-08-22T04:08:25.995Z,99754.00
2022-08-22T04:11:21.674Z,99757.56
2022-08-22T04:14:08.812Z,99763.63
2022-08-22T04:17:11.575Z,99767.97
2022-08-22T04:19:41.037Z,99771.75
2022-08-22T04:22:21.960Z,99760.81
2022-08-22T04:24:53.710Z,99764.13
2022-08-22T04:27:38.263Z,99759.13
2022-08-22T04:30:23.101Z,99761.66
2022-08-22T04:33:06.734Z,99759.13
2022-08-22T04:35:46.319Z,99751.97
2022-08-22T04:38:13.276Z,99753.09
2022-08-22T04:40:52.956Z,99751.44
2022-08-22T04:43:38.309Z,99748.47
2022-08-22T04:46:11.433Z,99748.78
2022-08-22T04:49:05.969Z,99744.09
2022-08-22T04:51:40.874Z,99744.91
2022-08-22T04:54:46.027Z,99740.53
2022-08-22T04:57:45.180Z,99723.16
2022-08-22T05:00:16.087Z,99730.03
2022-08-22T05:02:51.645Z,99722.63
2022-08-22T05:05:26.171Z,99718.75
2022-08-22T05:07:58.283Z,99720.94
2022-08-22T05:10:35.879Z,99710.50
2022-08-22T05:13:08.048Z,99710.81
2022-08-22T05:15:38.164Z,99704.78
2022-08-22T05:18:13.752Z,99710.03
2022-08-22T05:20:45.137Z,99705.63
2022-08-22T05:23:19.005Z,99708.75
2022-08-22T05:25:51.156Z,99716.72
2022-08-22T05:28:33.920Z,99719.25
2022-08-22T05:31:05.775Z,99727.00
2022-08-22T05:33:39.077Z,99720.41
2022-08-22T05:36:27.436Z,99713.88
2022-08-22T05:38:58.707Z,99718.03
2022-08-22T05:41:29.048Z,99715.84
2022-08-22T05:43:56.315Z,99717.53
2022-08-22T05:46:32.600Z,99716.22
2022-08-22T05:49:03.203Z,99723.41
2022-08-22T05:51:39.190Z,99725.41
2022-08-22T05:54:19.892Z,99730.16
2022-08-22T05:56:55.061Z,99727.44
2022-08-22T05:59:27.950Z,99725.78
2022-08-22T06:02:07.721Z,99731.38
2022-08-22T06:04:50.148Z,99727.22
2022-08-22T06:07:42.339Z,99730.25
2022-08-22T06:10:27.852Z,99727.78
2022-08-22T06:13:14.614Z,99717.59
2022-08-22T06:15:48.172Z,99720.63
2022-08-22T06:18:21.167Z,99713.16
2022-08-22T06:20:50.026Z,99716.72
2022-08-22T06:23:28.146Z,99710.06
2022-08-22T06:25:59.592Z,99711.44
2022-08-22T06:28:33.832Z,99723.28
2022-08-22T06:31:02.445Z,99717.16
2022-08-22T06:33:34.320Z,99718.50
2022-08-22T06:36:25.530Z,99717.59
2022-08-22T06:39:06.396Z,99724.34
2022-08-22T06:41:39.150Z,99721.97
2022-08-22T06:44:08.317Z,99725.69
2022-08-22T06:46:38.415Z,99726.97
2022-08-22T06:49:08.403Z,99736.50
2022-08-22T06:51:38.174Z,99733.16
2022-08-22T06:54:11.970Z,99728.19
2022-08-22T06:56:42.771Z,99724.88
2022-08-22T06:59:14.880Z,99727.03
2022-08-22T07:01:52.284Z,99734.69
2022-08-22T07:04:26.593Z,99731.81
2022-08-22T07:06:56.000Z,99734.53
2022-08-22T07:09:28.245Z,99729.50
2022-08-22T07:11:58.045Z,99726.66
2022-08-22T07:14:29.682Z,99714.19
2022-08-22T07:17:00.166Z,99712.81
2022-08-22T07:19:37.357Z,99698.47
2022-08-22T07:22:14.885Z,99699.28
2022-08-22T07:24:55.917Z,99698.72
2022-08-22T07:28:04.504Z,99703.44
2022-08-22T07:31:01.471Z,99704.00
2022-08-22T07:33:44.357Z,99718.31
2022-08-22T07:36:36.739Z,99720.38
2022-08-22T07:39:19.155Z,99710.31
2022-08-22T07:42:07.281Z,99708.44
2022-08-22T07:45:13.642Z,99711.97
2022-08-22T07:48:02.990Z,99702.81
2022-08-22T07:50:39.430Z,99698.84
2022-08-22T07:53:20.553Z,99699.59
2022-08-22T07:55:49.808Z,99704.25
2022-08-22T07:58:18.490Z,99713.16
2022-08-22T08:00:47.031Z,99705.22
2022-08-22T08:03:14.583Z,99702.88
2022-08-22T08:05:44.616Z,99723.88
2022-08-22T08:08:18.979Z,99716.44
2022-08-22T08:10:49.100Z,99709.25
2022-08-22T08:13:25.439Z,99698.09
2022-08-22T08:15:52.875Z,99695.84
2022-08-22T08:18:25.183Z,99700.91
2022-08-22T08:21:05.338Z,99684.59
2022-08-22T08:23:40.133Z,99684.75
2022-08-22T08:26:21.258Z,99689.97
2022-08-22T08:28:52.272Z,99688.13
2022-08-22T08:31:32.067Z,99684.31
2022-08-22T08:34:29.133Z,99693.06
2022-08-22T08:37:10.012Z,99697.72
2022-08-22T08:39:51.667Z,99691.44
2022-08-22T08:42:30.356Z,99687.41
2022-08-22T08:45:24.739Z,99685.63
2022-08-22T08:48:05.623Z,99680.72
2022-08-22T08:50:44.289Z,99692.03
2022-08-22T08:53:38.977Z,99690.09
2022-08-22T08:56:22.408Z,99691.78
2022-08-22T08:59:14.062Z,99683.13
2022-08-22T09:05:34.163Z,99686.22
2022-08-22T09:08:38.086Z,99691.97
2022-08-22T09:11:31.218Z,99697.00
2022-08-22T09:14:19.769Z,99691.44
2022-08-22T09:17:22.717Z,99682.59
2022-08-22T09:20:17.985Z,99687.66
2022-08-22T09:23:01.195Z,99687.31
2022-08-22T09:25:38.607Z,99681.47
2022-08-22T09:28:28.187Z,99683.59
2022-08-22T09:31:17.075Z,99685.69
2022-08-22T09:34:08.979Z,99681.75
2022-08-22T09:37:04.714Z,99687.81
2022-08-22T09:39:47.106Z,99677.19
2022-08-22T09:42:31.245Z,99683.16
2022-08-22T09:45:19.613Z,99686.34
2022-08-22T09:48:11.711Z,99681.03
2022-08-22T09:51:28.729Z,99669.28
2022-08-22T09:54:12.152Z,99664.22
2022-08-22T09:57:03.921Z,99645.25
2022-08-22T09:59:58.404Z,99644.44
2022-08-22T10:03:03.625Z,99639.16
2022-08-22T10:05:46.603Z,99634.78
2022-08-22T10:08:46.190Z,99641.03
2022-08-22T10:11:27.136Z,99637.81
2022-08-22T10:14:15.245Z,99626.75
2022-08-22T10:16:54.879Z,99628.75
2022-08-22T10:19:28.652Z,99627.91
2022-08-22T10:22:16.980Z,99618.22
2022-08-22T10:24:51.245Z,99629.22
2022-08-22T10:27:38.266Z,99615.09
2022-08-22T10:30:17.237Z,99616.44
2022-08-22T10:32:58.194Z,99625.28
2022-08-22T10:35:38.891Z,99623.31
2022-08-22T10:38:25.378Z,99623.81
2022-08-22T10:41:22.621Z,99619.56
2022-08-22T10:44:01.566Z,99623.63
2022-08-22T10:46:38.927Z,99617.59
2022-08-22T10:49:35.153Z,99620.19
2022-08-22T10:52:15.853Z,99616.75
2022-08-22T10:55:16.252Z,99622.16
2022-08-22T10:58:10.794Z,99614.63
2022-08-22T11:00:54.050Z,99610.34
2022-08-22T11:03:28.341Z,99612.50
2022-08-22T11:06:00.760Z,99612.50
2022-08-22T11:08:49.007Z,99603.13
2022-08-22T11:11:32.704Z,99604.47
2022-08-22T11:14:31.368Z,99602.78
2022-08-22T11:17:23.663Z,99596.56
2022-08-22T11:20:24.218Z,99594.59
2022-08-22T11:23:16.511Z,99597.84
2022-08-22T11:26:33.530Z,99593.88
2022-08-22T11:29:26.394Z,99589.75
2022-08-22T11:32:06.455Z,99587.41
2022-08-22T11:34:50.149Z,99587.41
2022-08-22T11:37:23.851Z,99579.66
2022-08-22T11:40:30.947Z,99585.06
2022-08-22T11:43:03.086Z,99574.22
2022-08-22T11:45:38.420Z,99576.56
2022-08-22T11:48:27.155Z,99575.59
2022-08-22T11:51:24.847Z,99583.19
2022-08-22T11:54:19.873Z,99578.78
2022-08-22T11:57:22.568Z,99581.56
2022-08-22T12:02:42.223Z,99585.50
2022-08-22T12:05:24.494Z,99585.19
2022-08-22T12:08:21.402Z,99586.16
2022-08-22T12:11:23.273Z,99585.50
2022-08-22T12:14:06.596Z,99582.88
2022-08-22T12:17:00.848Z,99578.94
2022-08-22T12:19:33.574Z,99583.03
2022-08-22T12:22:19.025Z,99573.84
2022-08-22T12:25:17.584Z,99584.03
2022-08-22T12:28:03.288Z,99578.34
2022-08-22T12:31:01.224Z,99571.28
2022-08-22T12:33:49.402Z,99575.72
2022-08-22T12:36:29.309Z,99580.50
2022-08-22T12:39:02.276Z,99574.59
2022-08-22T12:41:38.681Z,99579.00
2022-08-22T12:44:29.388Z,99582.94
2022-08-22T12:47:25.745Z,99574.75
2022-08-22T12:50:28.629Z,99579.00
2022-08-22T12:53:20.062Z,99581.13
2022-08-22T12:56:05.361Z,99579.44
2022-08-22T12:58:35.093Z,99574.66
2022-08-22T13:01:06.969Z,99578.28
2022-08-22T13:03:41.948Z,99566.00
2022-08-22T13:06:33.783Z,99578.28
2022-08-22T13:09:02.431Z,99573.56
2022-08-22T13:11:40.828Z,99573.56
2022-08-22T13:14:18.196Z,99571.13
2022-08-22T13:16:51.176Z,99569.16
2022-08-22T13:19:23.979Z,99563.91
2022-08-22T13:22:05.721Z,99567.63
2022-08-22T13:25:16.312Z,99571.41
2022-08-22T13:27:56.560Z,99577.75
2022-08-22T13:30:38.707Z,99570.34
2022-08-22T13:33:12.951Z,99574.63
2022-08-22T13:35:57.137Z,99574.44
2022-08-22T13:38:30.316Z,99575.75
2022-08-22T13:40:59.134Z,99563.47
2022-08-22T13:43:30.490Z,99561.66
2022-08-22T13:46:02.455Z,99567.56
2022-08-22T13:48:46.811Z,99570.44
2022-08-22T13:51:30.283Z,99571.94
2022-08-22T13:54:11.102Z,99565.66
2022-08-22T13:57:02.935Z,99566.66
2022-08-22T14:00:05.099Z,99559.94
2022-08-22T14:02:54.803Z,99563.03
2022-08-22T14:05:36.681Z,99553.88
2022-08-22T14:08:12.854Z,99550.59
2022-08-22T14:10:45.488Z,99548.47
2022-08-22T14:13:18.294Z,99539.09
2022-08-22T14:15:46.306Z,99547.50
2022-08-22T14:18:32.539Z,99535.72
2022-08-22T14:21:40.536Z,99540.56
2022-08-22T14:24:13.583Z,99540.28
2022-08-22T14:26:53.897Z,99554.38
2022-08-22T14:29:31.838Z,99549.56
2022-08-22T14:32:26.660Z,99537.94
2022-08-22T14:35:02.470Z,99537.94
2022-08-22T14:37:35.805Z,99540.03
2022-08-22T14:40:13.497Z,99532.00
2022-08-22T14:42:55.152Z,99532.66
2022-08-22T14:45:27.502Z,99526.53
2022-08-22T14:48:29.425Z,99526.97
2022-08-22T14:50:55.811Z,99519.53
2022-08-22T14:53:29.627Z,99515.66
2022-08-22T14:56:07.068Z,99511.56
2022-08-22T14:59:06.641Z,99512.56
2022-08-22T15:01:53.191Z,99509.34
2022-08-22T15:04:35.428Z,99509.81
2022-08-22T15:07:02.821Z,99498.78
2022-08-22T15:09:56.999Z,99502.56
2022-08-22T15:12:33.025Z,99497.94
2022-08-22T15:15:03.689Z,99496.50
2022-08-22T15:17:44.012Z,99491.19
2022-08-22T15:20:14.501Z,99486.50
2022-08-22T15:22:45.506Z,99489.31
2022-08-22T15:25:35.364Z,99484.72
2022-08-22T15:28:14.131Z,99496.25
2022-08-22T15:31:15.001Z,99495.00
2022-08-22T15:33:45.380Z,99490.84
2022-08-22T15:36:21.596Z,99495.63
2022-08-22T15:38:54.419Z,99491.22
2022-08-22T15:41:36.170Z,99489.84
2022-08-22T15:44:07.389Z,99490.84
2022-08-22T15:46:52.480Z,99490.84
2022-08-22T15:49:20.415Z,99483.69
2022-08-22T15:51:59.509Z,99496.63
2022-08-22T15:54:34.545Z,99486.66
2022-08-22T15:57:10.445Z,99487.28
2022-08-22T15:59:53.623Z,99485.38
2022-08-22T16:02:45.064Z,99484.91
2022-08-22T16:05:12.187Z,99478.84
2022-08-22T16:07:46.714Z,99480.00
2022-08-22T16:10:35.493Z,99484.06
2022-08-22T16:13:14.146Z,99486.00
2022-08-22T16:15:55.786Z,99477.19
2022-08-22T16:18:37.595Z,99481.63
2022-08-22T16:21:35.238Z,99481.66
2022-08-22T16:24:02.104Z,99475.94
2022-08-22T16:26:31.826Z,99481.56
2022-08-22T16:29:14.785Z,99476.34
2022-08-22T16:31:44.250Z,99477.09
2022-08-22T16:34:17.191Z,99470.69
2022-08-22T16:37:08.741Z,99474.09
2022-08-22T16:39:48.670Z,99464.50
2022-08-22T16:42:15.846Z,99462.91
2022-08-22T16:44:48.573Z,99464.25
2022-08-22T16:47:20.519Z,99469.69
2022-08-22T16:49:50.293Z,99465.25
2022-08-22T16:52:26.383Z,99456.91
2022-08-22T16:55:06.321Z,99463.31
2022-08-22T16:57:59.317Z,99461.00
2022-08-22T17:00:50.330Z,99458.88
2022-08-22T17:03:32.344Z,99461.66
2022-08-22T17:06:23.320Z,99460.34
2022-08-22T17:09:03.535Z,99465.53
2022-08-22T17:12:12.872Z,99467.06
2022-08-22T17:15:13.188Z,99465.91
2022-08-22T17:18:11.542Z,99467.38
2022-08-22T17:20:46.922Z,99461.34
2022-08-22T17:23:31.995Z,99459.03
2022-08-22T17:26:04.539Z,99457.88
2022-08-22T17:28:52.164Z,99456.28
2022-08-22T17:31:49.351Z,99453.03
2022-08-22T17:34:22.091Z,99454.66
2022-08-22T17:37:26.476Z,99455.31
2022-08-22T17:40:21.059Z,99461.53
2022-08-22T17:43:10.473Z,99452.03
2022-08-22T17:45:57.875Z,99449.41
2022-08-22T17:48:32.335Z,99449.91
2022-08-22T17:51:26.525Z,99453.03
2022-08-22T17:53:57.321Z,99458.41
2022-08-22T17:56:45.882Z,99452.03
2022-08-22T17:59:20.334Z,99455.31
2022-08-22T18:01:50.152Z,99459.56
2022-08-22T18:04:55.047Z,99460.69
2022-08-22T18:07:25.500Z,99461.69
2022-08-22T18:10:01.429Z,99453.03
2022-08-22T18:12:53.417Z,99454.81
2022-08-22T18:15:26.133Z,99449.72
2022-08-22T18:17:59.112Z,99449.41
2022-08-22T18:20:37.473Z,99452.31
2022-08-22T18:23:35.620Z,99455.94
2022-08-22T18:26:28.693Z,99456.41
2022-08-22T18:29:01.265Z,99452.63
2022-08-22T18:31:43.197Z,99449.44
2022-08-22T18:34:20.946Z,99453.16
2022-08-22T18:36:56.080Z,99459.03
2022-08-22T18:39:42.595Z,99463.47
2022-08-22T18:42:23.289Z,99470.50
2022-08-22T18:44:50.064Z,99460.00
2022-08-22T18:47:25.519Z,99464.75
2022-08-22T18:49:54.870Z,99476.69
2022-08-22T18:52:35.985Z,99466.41
2022-08-22T18:55:15.620Z,99474.72
2022-08-22T18:58:06.404Z,99476.84
2022-08-22T19:00:57.522Z,99483.53
2022-08-22T19:03:36.077Z,99478.31
2022-08-22T19:06:21.048Z,99474.19
2022-08-22T19:08:57.808Z,99482.06
2022-08-22T19:11:47.223Z,99480.41
2022-08-22T19:14:58.640Z,99485.28
2022-08-22T19:17:55.500Z,99487.72
2022-08-22T19:20:53.006Z,99482.59
2022-08-22T19:23:40.464Z,99488.28
2022-08-22T19:26:28.766Z,99484.63
2022-08-22T19:29:06.675Z,99482.16
2022-08-22T19:31:35.758Z,99483.19
2022-08-22T19:34:29.487Z,99495.56
2022-08-22T19:37:33.179Z,99495.81
2022-08-22T19:40:42.028Z,99497.59
2022-08-22T19:43:21.132Z,99501.84
2022-08-22T19:45:49.886Z,99500.78
2022-08-22T19:48:27.600Z,99500.78
2022-08-22T19:51:20.764Z,99500.50
2022-08-22T19:54:16.270Z,99491.34
2022-08-22T19:57:16.015Z,99491.94
2022-08-22T20:00:12.544Z,99493.69
2022-08-22T20:03:10.774Z,99489.59
2022-08-22T20:05:57.535Z,99496.31
2022-08-22T20:09:02.764Z,99486.75
2022-08-22T20:12:02.524Z,99491.63
2022-08-22T20:14:33.703Z,99492.22
2022-08-22T20:17:14.754Z,99494.94
2022-08-22T20:20:16.508Z,99486.72
2022-08-22T20:22:39.326Z,99490.44
2022-08-22T20:25:38.766Z,99490.44
2022-08-22T20:28:02.978Z,99491.88
2022-08-22T20:30:38.358Z,99495.50
2022-08-22T20:33:23.064Z,99499.91
2022-08-22T20:35:59.617Z,99503.31
2022-08-22T20:38:38.318Z,99502.81
2022-08-22T20:41:26.441Z,99498.28
2022-08-22T20:43:57.637Z,99501.56
2022-08-22T20:46:55.340Z,99505.97
2022-08-22T20:49:28.769Z,99496.50
2022-08-22T20:52:10.580Z,99503.72
2022-08-22T20:54:40.408Z,99507.09
2022-08-22T20:57:19.386Z,99506.59
2022-08-22T20:59:57.329Z,99510.69
2022-08-22T21:02:36.341Z,99507.59
2022-08-22T21:05:18.685Z,99508.94
2022-08-22T21:07:49.188Z,99503.06
2022-08-22T21:10:41.352Z,99498.66
2022-08-22T21:13:22.189Z,99508.13
2022-08-22T21:15:51.280Z,99501.56
2022-08-22T21:18:31.121Z,99500.41
2022-08-22T21:21:17.077Z,99498.06
2022-08-22T21:23:50.653Z,99498.47
2022-08-22T21:26:23.094Z,99492.75
2022-08-22T21:28:49.899Z,99497.06
2022-08-22T21:31:22.105Z,99494.91
2022-08-22T21:33:51.627Z,99497.31
2022-08-22T21:36:22.867Z,99505.09
2022-08-22T21:38:59.437Z,99499.56
2022-08-22T21:41:28.191Z,99505.22
2022-08-22T21:43:55.302Z,99506.56
2022-08-22T21:46:29.010Z,99505.09
2022-08-22T21:49:04.174Z,99516.19
2022-08-22T21:51:36.680Z,99514.56
2022-08-22T21:54:19.921Z,99519.31
2022-08-22T21:56:48.780Z,99517.84
2022-08-22T21:59:26.482Z,99526.38
2022-08-22T22:02:28.014Z,99522.19
2022-08-22T22:04:55.458Z,99511.88
2022-08-22T22:07:24.393Z,99517.22
2022-08-22T22:09:54.606Z,99512.00
2022-08-22T22:12:23.314Z,99512.94
2022-08-22T22:14:50.505Z,99520.44
2022-08-22T22:17:19.565Z,99520.22
2022-08-22T22:19:47.379Z,99520.72
2022-08-22T22:22:14.448Z,99515.50
2022-08-22T22:24:41.314Z,99521.66
2022-08-22T22:27:08.471Z,99511.47
2022-08-22T22:29:36.268Z,99511.88
2022-08-22T22:32:03.613Z,99518.97
2022-08-22T22:34:30.607Z,99524.59
2022-08-22T22:36:57.597Z,99515.25
2022-08-22T22:39:24.761Z,99518.63
2022-08-22T22:41:51.919Z,99510.41
2022-08-22T22:44:18.807Z,99514.31
2022-08-22T22:46:49.132Z,99507.94
2022-08-22T22:49:16.080Z,99514.81
2022-08-22T22:51:42.970Z,99520.91
2022-08-22T22:54:11.249Z,99525.84
2022-08-22T22:56:38.440Z,99523.56
2022-08-22T22:59:13.140Z,99532.13
2022-08-22T23:02:04.129Z,99537.88
2022-08-22T23:04:32.630Z,99528.91
2022-08-22T23:06:59.587Z,99528.31
2022-08-22T23:09:28.252Z,99531.91
2022-08-22T23:12:06.711Z,99537.66
2022-08-22T23:14:34.577Z,99531.50
2022-08-22T23:17:02.259Z,99543.97
2022-08-22T23:19:29.426Z,99540.94
2022-08-22T23:21:59.314Z,99537.34
2022-08-22T23:24:29.762Z,99529.84
2022-08-22T23:26:57.154Z,99535.94
2022-08-22T23:29:24.939Z,99547.28
2022-08-22T23:31:58.308Z,99546.44
2022-08-22T23:34:31.709Z,99549.19
2022-08-22T23:37:02.612Z,99546.44
2022-08-22T23:39:35.380Z,99541.41
2022-08-22T23:42:02.841Z,99538.84
2022-08-22T23:44:32.239Z,99538.84
2022-08-22T23:47:00.978Z,99538.03
2022-08-22T23:49:29.289Z,99534.09
2022-08-22T23:51:56.604Z,99534.09
2022-08-22T23:54:23.791Z,99530.19
2022-08-22T23:56:55.472Z,99531.34
2022-08-22T23:59:30.633Z,99534.94
